createdAt,value
2023-05-16T00:03:03.467Z,3.80
2023-05-16T00:06:16.949Z,3.50
2023-05-16T00:09:29.270Z,3.50
2023-05-16T00:12:42.002Z,3.45
2023-05-16T00:15:57.006Z,3.60
2023-05-16T00:19:10.583Z,3.20
2023-05-16T00:22:23.150Z,3.75
2023-05-16T00:25:36.607Z,3.67
2023-05-16T00:28:48.936Z,3.95
2023-05-16T00:32:01.602Z,3.47
2023-05-16T00:35:14.030Z,3.58
2023-05-16T00:38:27.918Z,4.00
2023-05-16T00:41:40.545Z,3.78
2023-05-16T00:44:53.180Z,3.80
2023-05-16T00:48:05.747Z,4.03
2023-05-16T00:51:18.420Z,3.80
2023-05-16T00:54:30.976Z,3.95
2023-05-16T00:57:43.596Z,4.20
2023-05-16T01:00:56.268Z,3.67
2023-05-16T01:04:10.207Z,4.28
2023-05-16T01:07:22.620Z,4.30
2023-05-16T01:10:50.556Z,4.20
2023-05-16T01:14:21.949Z,4.22
2023-05-16T01:17:57.945Z,4.57
2023-05-16T01:21:17.122Z,4.78
2023-05-16T01:25:06.481Z,4.70
2023-05-16T01:28:18.824Z,4.65
2023-05-16T01:31:32.070Z,4.72
2023-05-16T01:34:44.521Z,4.55
2023-05-16T01:38:01.023Z,4.80
2023-05-16T01:41:39.369Z,5.45
2023-05-16T01:45:15.030Z,5.50
2023-05-16T01:48:32.967Z,6.07
2023-05-16T01:51:48.329Z,5.70
2023-05-16T01:55:00.768Z,5.60
2023-05-16T01:58:17.535Z,5.82
2023-05-16T02:01:30.600Z,5.60
2023-05-16T02:04:43.521Z,6.10
2023-05-16T02:07:56.090Z,6.47
2023-05-16T02:11:08.799Z,6.35
2023-05-16T02:14:21.205Z,6.43
2023-05-16T02:17:33.984Z,7.03
2023-05-16T02:20:46.384Z,7.30
2023-05-16T02:24:01.785Z,7.60
2023-05-16T02:27:14.193Z,7.50
2023-05-16T02:30:28.008Z,7.70
2023-05-16T02:33:41.559Z,7.45
2023-05-16T02:36:55.237Z,7.55
2023-05-16T02:40:09.078Z,7.05
2023-05-16T02:43:22.499Z,7.35
2023-05-16T02:46:35.016Z,7.65
2023-05-16T02:49:49.367Z,7.10
2023-05-16T02:53:02.523Z,7.07
2023-05-16T02:56:15.287Z,7.47
2023-05-16T02:59:27.802Z,7.87
2023-05-16T03:02:40.593Z,7.32
2023-05-16T03:05:53.227Z,7.37
2023-05-16T03:09:06.051Z,7.10
2023-05-16T03:12:18.462Z,7.35
2023-05-16T03:15:33.807Z,6.65
2023-05-16T03:18:46.232Z,7.15
2023-05-16T03:21:59.370Z,7.65
2023-05-16T03:25:14.825Z,7.32
2023-05-16T03:28:27.500Z,7.45
2023-05-16T03:34:55.422Z,7.15
2023-05-16T03:38:08.826Z,7.93
2023-05-16T03:41:22.317Z,7.45
2023-05-16T03:44:34.721Z,7.53
2023-05-16T03:47:49.134Z,7.45
2023-05-16T03:51:01.505Z,7.10
2023-05-16T03:54:14.549Z,6.85
2023-05-16T03:57:26.881Z,7.40
2023-05-16T04:00:39.529Z,6.68
2023-05-16T04:03:52.202Z,7.12
2023-05-16T04:07:04.725Z,6.55
2023-05-16T04:10:17.378Z,6.30
2023-05-16T04:13:32.819Z,6.40
2023-05-16T04:16:45.591Z,5.87
2023-05-16T04:19:58.201Z,6.70
2023-05-16T04:23:13.949Z,6.10
2023-05-16T04:26:27.575Z,6.07
2023-05-16T04:29:40.569Z,6.57
2023-05-16T04:32:52.941Z,6.75
2023-05-16T04:36:06.139Z,6.90
2023-05-16T04:39:18.520Z,6.75
2023-05-16T04:42:31.499Z,8.30
2023-05-16T04:45:43.876Z,6.87
2023-05-16T04:48:56.682Z,7.65
2023-05-16T04:52:09.183Z,7.55
2023-05-16T04:55:21.883Z,7.22
2023-05-16T04:58:37.010Z,7.80
2023-05-16T05:01:49.809Z,7.43
2023-05-16T05:05:02.780Z,8.60
2023-05-16T05:08:15.456Z,7.43
2023-05-16T05:11:27.777Z,7.60
2023-05-16T05:14:40.462Z,7.18
2023-05-16T05:17:53.208Z,6.95
2023-05-16T05:21:05.918Z,6.95
2023-05-16T05:24:18.304Z,7.53
2023-05-16T05:27:31.474Z,6.53
2023-05-16T05:30:43.954Z,6.10
2023-05-16T05:33:57.057Z,6.03
2023-05-16T05:37:09.482Z,5.37
2023-05-16T05:40:22.151Z,5.60
2023-05-16T05:43:35.238Z,5.15
2023-05-16T05:46:50.739Z,5.32
2023-05-16T05:50:04.160Z,5.37
2023-05-16T05:53:16.869Z,5.12
2023-05-16T05:56:29.690Z,4.62
2023-05-16T05:59:42.460Z,4.57
2023-05-16T06:02:55.194Z,4.75
2023-05-16T06:06:08.396Z,5.18
2023-05-16T06:09:21.666Z,4.65
2023-05-16T06:12:34.388Z,5.10
2023-05-16T06:15:53.946Z,4.70
2023-05-16T06:19:06.905Z,4.07
2023-05-16T06:22:19.340Z,4.28
2023-05-16T06:25:32.133Z,4.25
2023-05-16T06:28:44.528Z,5.10
2023-05-16T06:31:57.341Z,4.95
2023-05-16T06:35:09.939Z,4.97
2023-05-16T06:38:22.554Z,4.80
2023-05-16T06:41:35.147Z,4.78
2023-05-16T06:44:48.986Z,4.68
2023-05-16T06:48:01.597Z,4.55
2023-05-16T06:51:14.378Z,4.47
2023-05-16T06:54:26.834Z,4.32
2023-05-16T06:57:39.612Z,4.57
2023-05-16T07:00:52.020Z,4.10
2023-05-16T07:04:04.987Z,3.62
2023-05-16T07:07:17.776Z,3.55
2023-05-16T07:10:30.653Z,3.20
2023-05-16T07:13:44.047Z,3.55
2023-05-16T07:16:56.879Z,3.75
2023-05-16T07:20:13.549Z,3.45
2023-05-16T07:26:39.020Z,3.87
2023-05-16T07:29:51.717Z,3.58
2023-05-16T07:33:04.312Z,4.22
2023-05-16T07:36:18.479Z,3.40
2023-05-16T07:39:30.997Z,3.50
2023-05-16T07:42:44.431Z,2.95
2023-05-16T07:45:56.862Z,2.67
2023-05-16T07:49:09.596Z,2.70
2023-05-16T07:52:22.327Z,2.72
2023-05-16T07:55:35.067Z,2.80
2023-05-16T07:58:48.934Z,2.60
2023-05-16T08:02:01.759Z,2.22
2023-05-16T08:05:14.610Z,2.28
2023-05-16T08:08:27.079Z,2.40
2023-05-16T08:11:40.224Z,2.60
2023-05-16T08:14:52.639Z,2.45
2023-05-16T08:18:07.474Z,2.90
2023-05-16T08:21:22.465Z,2.42
2023-05-16T08:24:36.367Z,2.67
2023-05-16T08:27:49.429Z,3.35
2023-05-16T08:31:02.189Z,3.17
2023-05-16T08:34:17.491Z,3.10
2023-05-16T08:37:30.336Z,3.20
2023-05-16T08:40:43.056Z,3.00
2023-05-16T08:43:55.789Z,2.60
2023-05-16T08:47:15.411Z,2.87
2023-05-16T08:50:31.790Z,2.17
2023-05-16T08:53:46.238Z,2.80
2023-05-16T08:56:58.953Z,2.37
2023-05-16T09:00:12.468Z,2.37
2023-05-16T09:03:25.683Z,2.47
2023-05-16T09:06:39.654Z,2.37
2023-05-16T09:09:52.365Z,2.53
2023-05-16T09:13:04.818Z,2.70
2023-05-16T09:16:18.917Z,2.37
2023-05-16T09:19:39.412Z,2.62
2023-05-16T09:22:56.719Z,3.00
2023-05-16T09:26:09.219Z,2.97
2023-05-16T09:29:22.339Z,3.22
2023-05-16T09:32:34.811Z,3.00
2023-05-16T09:35:47.673Z,3.30
2023-05-16T09:39:01.003Z,3.40
2023-05-16T09:42:17.775Z,3.20
2023-05-16T09:45:31.110Z,3.00
2023-05-16T09:48:47.700Z,3.33
2023-05-16T09:52:02.974Z,3.55
2023-05-16T09:55:15.878Z,3.65
2023-05-16T09:58:32.203Z,3.65
2023-05-16T10:01:44.954Z,3.97
2023-05-16T10:04:57.658Z,4.40
2023-05-16T10:08:10.109Z,3.47
2023-05-16T10:11:24.043Z,4.10
2023-05-16T10:14:37.663Z,4.03
2023-05-16T10:17:53.164Z,4.28
2023-05-16T10:21:11.765Z,4.45
2023-05-16T10:24:29.444Z,4.37
2023-05-16T10:27:42.758Z,5.05
2023-05-16T10:30:55.696Z,5.47
2023-05-16T10:34:09.176Z,5.05
2023-05-16T10:37:22.709Z,4.82
2023-05-16T10:40:36.030Z,5.12
2023-05-16T10:43:58.196Z,5.37
2023-05-16T10:47:10.618Z,4.68
2023-05-16T10:50:43.663Z,4.97
2023-05-16T10:53:59.630Z,4.70
2023-05-16T10:57:23.590Z,4.60
2023-05-16T11:00:38.611Z,4.78
2023-05-16T11:03:57.297Z,4.70
2023-05-16T11:07:09.947Z,5.50
2023-05-16T11:10:22.687Z,5.22
2023-05-16T11:13:35.127Z,5.00
2023-05-16T11:16:51.766Z,5.55
2023-05-16T11:20:06.082Z,5.05
2023-05-16T11:23:26.033Z,5.15
2023-05-16T11:26:38.490Z,5.07
2023-05-16T11:29:51.668Z,5.03
2023-05-16T11:33:04.299Z,5.20
2023-05-16T11:36:17.328Z,5.10
2023-05-16T11:39:31.833Z,5.18
2023-05-16T11:42:48.024Z,4.65
2023-05-16T11:46:00.852Z,4.87
2023-05-16T11:49:13.618Z,4.75
2023-05-16T11:52:26.549Z,4.97
2023-05-16T11:55:42.357Z,5.62
2023-05-16T11:58:55.257Z,4.57
2023-05-16T12:02:09.815Z,5.18
2023-05-16T12:05:27.338Z,5.30
2023-05-16T12:08:39.895Z,5.47
2023-05-16T12:11:52.628Z,4.90
2023-05-16T12:15:06.619Z,4.65
2023-05-16T12:18:19.336Z,4.97
2023-05-16T12:21:32.387Z,5.25
2023-05-16T12:24:46.252Z,5.28
2023-05-16T12:28:00.590Z,4.80
2023-05-16T12:31:30.998Z,5.28
2023-05-16T12:34:50.419Z,5.05
2023-05-16T12:38:10.585Z,5.00
2023-05-16T12:41:23.132Z,5.18
2023-05-16T12:44:35.906Z,4.60
2023-05-16T12:47:48.396Z,5.22
2023-05-16T12:51:21.870Z,5.15
2023-05-16T12:54:34.477Z,5.47
2023-05-16T12:57:50.540Z,7.15
2023-05-16T13:01:05.933Z,5.45
2023-05-16T13:04:20.500Z,5.55
2023-05-16T13:07:33.380Z,5.57
2023-05-16T13:10:46.239Z,5.22
2023-05-16T13:13:58.650Z,5.22
2023-05-16T13:17:12.014Z,5.95
2023-05-16T13:20:24.781Z,5.05
2023-05-16T13:23:37.646Z,5.85
2023-05-16T13:26:50.063Z,6.87
2023-05-16T13:30:04.270Z,8.20
2023-05-16T13:33:16.799Z,5.35
2023-05-16T13:36:38.404Z,5.78
2023-05-16T13:40:02.293Z,5.50
2023-05-16T13:43:15.812Z,6.72
2023-05-16T13:46:28.438Z,6.70
2023-05-16T13:49:41.579Z,6.10
2023-05-16T13:52:54.081Z,5.20
2023-05-16T13:56:06.960Z,5.45
2023-05-16T13:59:31.146Z,5.40
2023-05-16T14:02:51.191Z,5.50
2023-05-16T14:06:04.708Z,5.85
2023-05-16T14:09:17.183Z,5.85
2023-05-16T14:12:29.874Z,5.53
2023-05-16T14:15:42.303Z,6.30
2023-05-16T14:18:56.034Z,5.50
2023-05-16T14:22:10.094Z,5.75
2023-05-16T14:25:22.823Z,5.53
2023-05-16T14:28:35.442Z,5.85
2023-05-16T14:31:48.160Z,5.35
2023-05-16T14:35:00.768Z,5.82
2023-05-16T14:38:14.824Z,5.95
2023-05-16T14:41:27.382Z,5.45
2023-05-16T14:44:40.099Z,5.55
2023-05-16T14:47:52.738Z,5.60
2023-05-16T14:51:06.206Z,5.90
2023-05-16T14:54:19.189Z,5.87
2023-05-16T14:57:32.661Z,5.55
2023-05-16T15:00:45.109Z,5.45
2023-05-16T15:03:57.769Z,5.55
2023-05-16T15:07:10.132Z,5.10
2023-05-16T15:10:25.964Z,6.30
2023-05-16T15:13:39.145Z,6.28
2023-05-16T15:16:51.811Z,5.50
2023-05-16T15:20:06.986Z,5.55
2023-05-16T15:23:20.025Z,5.90
2023-05-16T15:26:32.775Z,5.40
2023-05-16T15:29:45.503Z,5.93
2023-05-16T15:32:58.569Z,5.40
2023-05-16T15:36:11.851Z,6.05
2023-05-16T15:39:25.932Z,5.12
2023-05-16T15:42:38.626Z,5.45
2023-05-16T15:45:51.020Z,5.10
2023-05-16T15:49:03.776Z,5.32
2023-05-16T15:52:16.251Z,6.10
2023-05-16T15:55:29.203Z,5.60
2023-05-16T15:58:41.938Z,5.70
2023-05-16T16:01:54.707Z,6.62
2023-05-16T16:05:08.080Z,6.25
2023-05-16T16:08:21.153Z,5.72
2023-05-16T16:11:33.834Z,5.40
2023-05-16T16:14:46.301Z,5.87
2023-05-16T16:17:58.997Z,5.20
2023-05-16T16:21:11.498Z,6.18
2023-05-16T16:24:24.144Z,5.75
2023-05-16T16:27:36.687Z,6.45
2023-05-16T16:30:50.582Z,5.37
2023-05-16T16:34:03.209Z,5.85
2023-05-16T16:37:16.166Z,5.57
2023-05-16T16:40:28.927Z,6.20
2023-05-16T16:43:42.220Z,5.22
2023-05-16T16:46:54.681Z,6.20
2023-05-16T16:50:08.293Z,6.22
2023-05-16T16:53:20.738Z,6.55
2023-05-16T16:56:33.425Z,6.78
2023-05-16T16:59:46.759Z,6.15
2023-05-16T17:02:59.594Z,6.05
2023-05-16T17:06:12.056Z,6.03
2023-05-16T17:09:25.443Z,6.07
2023-05-16T17:12:44.550Z,6.22
2023-05-16T17:15:57.402Z,5.60
2023-05-16T17:19:10.229Z,5.65
2023-05-16T17:22:22.929Z,6.40
2023-05-16T17:25:35.604Z,5.55
2023-05-16T17:28:49.053Z,6.03
2023-05-16T17:32:01.436Z,5.50
2023-05-16T17:35:14.429Z,6.03
2023-05-16T17:38:27.110Z,5.53
2023-05-16T17:41:39.835Z,5.75
2023-05-16T17:44:52.727Z,5.72
2023-05-16T17:48:05.619Z,5.60
2023-05-16T17:51:18.015Z,5.90
2023-05-16T17:54:33.210Z,5.78
2023-05-16T17:57:45.690Z,5.70
2023-05-16T18:00:58.453Z,5.40
2023-05-16T18:04:11.182Z,5.80
2023-05-16T18:07:25.217Z,6.30
2023-05-16T18:10:50.853Z,5.87
2023-05-16T18:14:04.306Z,6.28
2023-05-16T18:17:17.290Z,5.95
2023-05-16T18:20:29.857Z,6.18
2023-05-16T18:23:42.577Z,5.97
2023-05-16T18:26:55.010Z,5.40
2023-05-16T18:30:08.259Z,5.78
2023-05-16T18:33:20.955Z,5.15
2023-05-16T18:36:33.614Z,5.90
2023-05-16T18:39:48.454Z,5.18
2023-05-16T18:43:01.179Z,5.60
2023-05-16T18:46:13.531Z,5.70
2023-05-16T18:49:26.246Z,5.47
2023-05-16T18:52:40.659Z,5.60
2023-05-16T18:55:53.404Z,5.87
2023-05-16T18:59:06.697Z,5.57
2023-05-16T19:02:24.447Z,5.18
2023-05-16T19:05:44.174Z,5.65
2023-05-16T19:08:57.102Z,6.00
2023-05-16T19:12:12.599Z,5.57
2023-05-16T19:15:25.365Z,5.85
2023-05-16T19:18:38.366Z,6.30
2023-05-16T19:21:51.583Z,6.20
2023-05-16T19:25:04.924Z,5.78
2023-05-16T19:28:17.894Z,5.87
2023-05-16T19:31:30.389Z,5.72
2023-05-16T19:34:43.744Z,5.90
2023-05-16T19:37:56.197Z,5.78
2023-05-16T19:41:08.892Z,5.50
2023-05-16T19:44:21.321Z,5.72
2023-05-16T19:47:34.135Z,6.03
2023-05-16T19:50:46.608Z,6.37
2023-05-16T19:53:59.309Z,5.80
2023-05-16T19:57:11.842Z,5.93
2023-05-16T20:00:24.814Z,6.07
2023-05-16T20:03:37.821Z,5.53
2023-05-16T20:06:50.411Z,5.87
2023-05-16T20:14:11.560Z,5.90
2023-05-16T20:17:24.287Z,5.65
2023-05-16T20:20:36.751Z,6.30
2023-05-16T20:28:10.659Z,5.45
2023-05-16T20:31:55.723Z,5.70
2023-05-16T20:35:10.226Z,5.75
2023-05-16T20:38:23.050Z,6.20
2023-05-16T20:41:35.766Z,5.53
2023-05-16T20:44:48.564Z,6.18
2023-05-16T20:48:01.041Z,5.62
2023-05-16T20:51:13.961Z,5.78
2023-05-16T20:54:26.395Z,5.22
2023-05-16T20:57:43.729Z,5.32
2023-05-16T21:00:56.313Z,5.97
2023-05-16T21:04:09.134Z,5.80
2023-05-16T21:07:21.712Z,6.05
2023-05-16T21:10:34.530Z,5.60
2023-05-16T21:13:47.060Z,6.12
2023-05-16T21:16:59.730Z,6.57
2023-05-16T21:20:12.378Z,5.15
2023-05-16T21:23:25.050Z,5.47
2023-05-16T21:26:39.790Z,5.78
2023-05-16T21:29:52.432Z,5.68
2023-05-16T21:33:04.855Z,5.87
2023-05-16T21:36:18.706Z,5.72
2023-05-16T21:39:31.298Z,5.70
2023-05-16T21:42:43.958Z,5.82
2023-05-16T21:45:56.305Z,5.90
2023-05-16T21:49:09.147Z,5.40
2023-05-16T21:52:21.532Z,6.05
2023-05-16T21:55:34.188Z,6.25
2023-05-16T21:58:46.670Z,5.00
2023-05-16T22:01:59.331Z,5.22
2023-05-16T22:05:12.125Z,5.53
2023-05-16T22:08:24.963Z,5.93
2023-05-16T22:11:37.641Z,5.65
2023-05-16T22:14:50.603Z,6.03
2023-05-16T22:18:03.461Z,5.97
2023-05-16T22:21:16.448Z,5.18
2023-05-16T22:24:29.110Z,5.50
2023-05-16T22:27:41.474Z,5.72
2023-05-16T22:30:54.142Z,5.78
2023-05-16T22:34:06.708Z,5.55
2023-05-16T22:37:19.486Z,5.20
2023-05-16T22:40:31.846Z,5.93
2023-05-16T22:43:44.615Z,5.32
2023-05-16T22:46:57.058Z,5.47
2023-05-16T22:50:10.068Z,6.37
2023-05-16T22:53:22.474Z,5.78
2023-05-16T22:56:35.112Z,6.00
2023-05-16T22:59:47.570Z,6.30
2023-05-16T23:03:00.513Z,5.93
2023-05-16T23:06:12.968Z,6.12
2023-05-16T23:09:25.613Z,6.25
2023-05-16T23:12:38.019Z,6.47
2023-05-16T23:15:50.711Z,6.25
2023-05-16T23:19:03.235Z,6.30
2023-05-16T23:22:16.030Z,5.95
2023-05-16T23:25:28.741Z,5.93
2023-05-16T23:28:41.702Z,5.78
2023-05-16T23:31:54.137Z,5.87
2023-05-16T23:35:07.214Z,5.87
2023-05-16T23:38:19.970Z,6.47
2023-05-16T23:41:32.661Z,6.22
2023-05-16T23:44:45.159Z,5.75
2023-05-16T23:47:57.886Z,5.60
2023-05-16T23:51:10.328Z,6.20
2023-05-16T23:54:22.978Z,5.87
2023-05-16T23:57:35.348Z,7.03
